Terminal Aerodrome Forecast
Issued by NWS Austin/San Antonio, TX

Home | Current Version | Previous Version | Text Only | Print | Product List | Glossary On
Versions: 1 2 3 4 5 6 7 8 9 10 11 12 13 14 15
000
FTUS44 KEWX 281700
TAFDRT
TAF
KDRT 281720Z 2818/0118 10007KT P6SM OVC012
     FM010300 11007KT P6SM OVC008
     FM010600 10006KT 4SM BR OVC003
     FM011700 14005KT P6SM OVC009=

USA.gov is the U.S. government's official web portal to all federal, state and local government web resources and services.